Time;durP1;ratioP1;P1;durP2;ratioP2;P2;SDS_P1;SDS_P2;PMS_P1;PMS_P2;Temp;Humidity;BMP_temperature;BMP_pressure;BME280_temperature;BME280_humidity;BME280_pressure;Samples;Min_cycle;Max_cycle;Signal;HPM_P1;HPM_P2
2022/12/15 00:39:43;;;;;;;5.60;2.23;;;;;;;;;;5087930;28;21022;-59
2022/12/15 00:42:09;;;;;;;3.37;2.23;;;;;;;;;;5087750;28;20045;-58
2022/12/15 00:44:36;;;;;;;3.03;2.07;;;;;;;;;;5087597;28;20024;-58
2022/12/15 00:47:03;;;;;;;3.87;2.40;;;;;;;;;;5091189;28;20063;-58
2022/12/15 01:22:39;;;;;;;2.63;1.73;;;;;;;;;;5086926;28;19915;-58
2022/12/15 01:25:07;;;;;;;2.07;1.50;;;;;;;;;;5086701;28;20016;-58
2022/12/15 01:27:34;;;;;;;3.20;1.40;;;;;;;;;;5087176;28;20031;-58
2022/12/15 01:30:01;;;;;;;2.10;1.33;;;;;;;;;;5087159;28;20081;-58
2022/12/15 01:32:28;;;;;;;2.50;1.80;;;;;;;;;;5072162;28;20032;-59
2022/12/15 01:34:54;;;;;;;10.23;1.83;;;;;;;;;;5090655;28;20424;-58
2022/12/15 01:37:21;;;;;;;1.73;1.30;;;;;;;;;;5091805;28;20020;-58
2022/12/15 01:42:33;;;;;;;1.27;1.08;;;;;;;;;;5091107;28;20556;-58
2022/12/15 01:45:18;;;;;;;4.13;1.50;;;;;;;;;;5088761;28;20028;-58
2022/12/15 01:47:44;;;;;;;;;;;;;;;;;;5091771;28;20348;-58
2022/12/15 01:50:14;;;;;;;3.53;1.60;;;;;;;;;;5090672;28;19920;-58
2022/12/15 01:52:41;;;;;;;7.70;1.73;;;;;;;;;;5092190;28;20122;-59
2022/12/15 01:55:09;;;;;;;3.23;2.43;;;;;;;;;;5095531;28;20044;-58
2022/12/15 01:57:36;;;;;;;2.07;1.67;;;;;;;;;;5095729;28;20034;-58
2022/12/15 02:00:04;;;;;;;2.60;1.50;;;;;;;;;;5095743;28;20024;-58
2022/12/15 02:02:32;;;;;;;4.00;1.90;;;;;;;;;;5096077;28;20081;-58
2022/12/15 02:05:00;;;;;;;3.43;1.60;;;;;;;;;;5093653;28;20099;-58
2022/12/15 02:07:27;;;;;;;9.10;1.70;;;;;;;;;;5090381;28;20093;-58
2022/12/15 02:09:55;;;;;;;1.93;1.47;;;;;;;;;;5090902;28;20027;-58
2022/12/15 02:12:28;;;;;;;4.40;2.30;;;;;;;;;;5090490;28;20036;-58
2022/12/15 02:15:13;;;;;;;9.37;1.80;;;;;;;;;;5091186;28;20035;-58
2022/12/15 02:17:46;;;;;;;4.60;1.88;;;;;;;;;;5078302;28;20382;-58
2022/12/15 02:20:19;;;;;;;2.17;1.50;;;;;;;;;;5095453;28;20028;-58
2022/12/15 02:22:51;;;;;;;3.67;2.10;;;;;;;;;;5095399;28;20069;-59
2022/12/15 02:25:44;;;;;;;4.43;1.83;;;;;;;;;;5094680;28;20068;-57
2022/12/15 02:28:13;;;;;;;3.30;1.57;;;;;;;;;;5092068;28;20024;-57
2022/12/15 02:30:43;;;;;;;4.80;2.73;;;;;;;;;;5089752;28;20470;-58
2022/12/15 02:33:14;;;;;;;8.10;2.60;;;;;;;;;;5089635;28;20024;-58
2022/12/15 02:35:46;;;;;;;5.43;3.27;;;;;;;;;;5089979;28;20032;-58
2022/12/15 02:38:12;;;;;;;1.77;1.10;;;;;;;;;;5073159;28;20025;-57
2022/12/15 02:40:40;;;;;;;2.87;2.07;;;;;;;;;;5093529;28;20572;-58
2022/12/15 02:43:07;;;;;;;2.47;1.67;;;;;;;;;;5094708;28;20028;-57
2022/12/15 02:46:03;;;;;;;2.37;1.77;;;;;;;;;;5095112;28;20035;-58
2022/12/15 02:48:36;;;;;;;2.73;2.10;;;;;;;;;;5093765;28;20036;-58
2022/12/15 02:51:19;;;;;;;11.70;2.40;;;;;;;;;;5089847;28;20048;-57
2022/12/15 02:54:02;;;;;;;7.67;1.47;;;;;;;;;;5089632;28;20024;-57
2022/12/15 02:56:32;;;;;;;3.23;2.17;;;;;;;;;;5088154;28;20080;-57
2022/12/15 02:58:58;;;;;;;2.37;1.57;;;;;;;;;;5090122;28;20024;-57
2022/12/15 03:01:46;;;;;;;3.97;2.43;;;;;;;;;;5094534;28;20036;-58
2022/12/15 03:04:13;;;;;;;4.03;2.33;;;;;;;;;;5093754;28;20359;-57
2022/12/15 03:06:40;;;;;;;2.03;1.57;;;;;;;;;;5094109;28;20392;-59
2022/12/15 03:09:06;;;;;;;4.27;2.17;;;;;;;;;;5094832;28;20101;-58
2022/12/15 03:11:34;;;;;;;3.30;1.53;;;;;;;;;;5093145;28;20032;-59
2022/12/15 03:14:00;;;;;;;1.93;1.20;;;;;;;;;;5089033;28;20024;-57
2022/12/15 03:16:27;;;;;;;1.73;1.20;;;;;;;;;;5089353;28;20024;-58
2022/12/15 03:18:54;;;;;;;3.33;1.53;;;;;;;;;;5089052;28;20416;-59
2022/12/15 03:21:20;;;;;;;6.60;3.30;;;;;;;;;;5088839;28;20382;-59
2022/12/15 03:23:47;;;;;;;4.63;3.00;;;;;;;;;;5094022;28;20024;-58
2022/12/15 03:26:15;;;;;;;6.30;3.03;;;;;;;;;;5094509;28;20047;-58
2022/12/15 03:28:41;;;;;;;1.40;1.17;;;;;;;;;;5094534;28;20077;-59
2022/12/15 03:31:08;;;;;;;2.50;1.73;;;;;;;;;;5093401;28;20016;-58
2022/12/15 03:33:35;;;;;;;4.47;3.00;;;;;;;;;;5093224;28;20031;-58
2022/12/15 03:36:02;;;;;;;2.37;1.73;;;;;;;;;;5088769;28;20019;-58
2022/12/15 03:38:28;;;;;;;1.50;1.37;;;;;;;;;;5089208;28;20027;-59
2022/12/15 03:40:55;;;;;;;4.23;2.03;;;;;;;;;;5088566;28;20513;-58
2022/12/15 03:43:22;;;;;;;2.27;1.70;;;;;;;;;;5089132;28;20028;-58
2022/12/15 03:45:48;;;;;;;2.10;1.50;;;;;;;;;;5093677;28;20081;-58
2022/12/15 03:48:15;;;;;;;2.53;1.70;;;;;;;;;;5092928;28;20474;-58
2022/12/15 03:50:43;;;;;;;3.97;1.90;;;;;;;;;;5094014;28;20024;-58
2022/12/15 03:53:10;;;;;;;4.90;3.07;;;;;;;;;;5093860;28;20486;-58
2022/12/15 03:55:36;;;;;;;3.70;2.40;;;;;;;;;;5093463;28;20019;-58
2022/12/15 03:58:03;;;;;;;2.67;1.47;;;;;;;;;;5088389;28;20093;-58
2022/12/15 04:00:30;;;;;;;1.70;1.27;;;;;;;;;;5088551;28;20066;-60
2022/12/15 04:02:56;;;;;;;5.60;3.07;;;;;;;;;;5088788;28;20161;-58
2022/12/15 04:05:25;;;;;;;2.07;1.77;;;;;;;;;;5088504;28;20479;-58
2022/12/15 04:07:52;;;;;;;6.13;2.57;;;;;;;;;;5092748;28;20084;-58
2022/12/15 04:10:19;;;;;;;1.47;1.30;;;;;;;;;;5093786;28;20020;-58
2022/12/15 04:12:46;;;;;;;4.10;2.50;;;;;;;;;;5093155;28;20022;-59
2022/12/15 04:15:12;;;;;;;4.17;2.47;;;;;;;;;;5093240;28;20032;-58
2022/12/15 04:17:39;;;;;;;6.57;2.97;;;;;;;;;;5093202;28;20036;-58
2022/12/15 04:20:10;;;;;;;22.80;2.83;;;;;;;;;;5088240;28;20360;-59
2022/12/15 04:22:40;;;;;;;3.17;2.07;;;;;;;;;;5088215;28;20424;-58
2022/12/15 05:34:00;;;;;;;9.18;2.97;;;;;;;;;;5087684;28;20062;-58
2022/12/15 05:36:27;;;;;;;3.40;2.13;;;;;;;;;;5090768;28;20024;-58
2022/12/15 05:38:54;;;;;;;2.90;2.27;;;;;;;;;;5092188;28;20360;-57
2022/12/15 05:41:21;;;;;;;4.93;3.10;;;;;;;;;;5091856;28;20054;-58
2022/12/15 05:43:47;;;;;;;2.87;2.00;;;;;;;;;;5092253;28;20031;-57
2022/12/15 05:46:14;;;;;;;3.47;2.33;;;;;;;;;;5091754;28;20081;-58
2022/12/15 05:48:41;;;;;;;2.33;1.90;;;;;;;;;;5088685;28;20437;-57
2022/12/15 05:51:09;;;;;;;4.63;3.13;;;;;;;;;;5086698;28;20089;-58
2022/12/15 05:53:37;;;;;;;4.73;2.43;;;;;;;;;;5087010;28;20644;-58
2022/12/15 05:56:04;;;;;;;5.77;3.10;;;;;;;;;;5087078;28;20024;-57
2022/12/15 05:58:31;;;;;;;5.30;2.73;;;;;;;;;;5089676;28;20081;-58
2022/12/15 06:01:12;;;;;;;3.43;2.83;;;;;;;;;;5091871;28;20029;-58
2022/12/15 06:03:39;;;;;;;1.83;1.60;;;;;;;;;;5092260;28;20418;-57
2022/12/15 06:06:06;;;;;;;6.43;2.20;;;;;;;;;;5091925;28;20071;-57
2022/12/15 06:08:34;;;;;;;3.60;2.20;;;;;;;;;;5092092;28;20016;-57
2022/12/15 06:11:01;;;;;;;1.93;1.73;;;;;;;;;;5088143;28;20490;-57
2022/12/15 06:13:35;;;;;;;3.17;2.10;;;;;;;;;;5086864;28;20471;-57
2022/12/15 06:16:03;;;;;;;2.90;1.70;;;;;;;;;;5086147;28;20032;-57
2022/12/15 06:18:32;;;;;;;2.10;1.67;;;;;;;;;;5086780;28;20028;-57
2022/12/15 06:21:03;;;;;;;1.27;1.13;;;;;;;;;;5089595;28;20036;-57
2022/12/15 06:23:31;;;;;;;2.00;1.30;;;;;;;;;;5091952;28;20026;-57
2022/12/15 06:25:58;;;;;;;3.33;2.27;;;;;;;;;;5092097;28;20040;-57
2022/12/15 06:28:25;;;;;;;3.40;2.23;;;;;;;;;;5091786;28;20047;-57
2022/12/15 06:30:52;;;;;;;2.00;1.50;;;;;;;;;;5092570;28;20024;-58
2022/12/15 06:33:19;;;;;;;2.03;1.30;;;;;;;;;;5091436;28;20035;-57
2022/12/15 06:35:46;;;;;;;3.07;2.47;;;;;;;;;;5090339;28;20044;-58
2022/12/15 06:38:13;;;;;;;5.50;2.87;;;;;;;;;;5090404;28;20501;-58
2022/12/15 06:40:40;;;;;;;4.87;2.17;;;;;;;;;;5089728;28;20090;-57
2022/12/15 06:43:07;;;;;;;3.03;2.20;;;;;;;;;;5092978;28;20031;-57
2022/12/15 06:45:34;;;;;;;3.10;2.57;;;;;;;;;;5095311;28;20098;-57
2022/12/15 06:48:01;;;;;;;4.10;1.87;;;;;;;;;;5094871;28;20020;-57
2022/12/15 06:50:28;;;;;;;4.30;3.37;;;;;;;;;;5095098;28;20016;-57
2022/12/15 06:52:54;;;;;;;3.77;2.33;;;;;;;;;;5095094;28;20043;-58
2022/12/15 06:55:21;;;;;;;3.20;2.40;;;;;;;;;;5091932;28;20121;-59
2022/12/15 06:57:48;;;;;;;4.17;2.73;;;;;;;;;;5089863;28;20028;-58
2022/12/15 07:00:15;;;;;;;4.33;2.60;;;;;;;;;;5089765;28;20096;-58
2022/12/15 07:02:42;;;;;;;4.03;3.00;;;;;;;;;;5089680;28;20046;-57
2022/12/15 07:05:09;;;;;;;1.63;1.53;;;;;;;;;;5092192;28;20024;-58
2022/12/15 07:07:35;;;;;;;2.00;1.80;;;;;;;;;;5094838;28;20634;-58
2022/12/15 07:10:02;;;;;;;3.70;2.67;;;;;;;;;;5094926;28;20034;-57
2022/12/15 07:12:29;;;;;;;3.00;2.20;;;;;;;;;;5094550;28;20034;-57
2022/12/15 07:14:56;;;;;;;3.20;2.17;;;;;;;;;;5094561;28;20039;-58
2022/12/15 07:17:23;;;;;;;5.37;3.70;;;;;;;;;;5092069;28;20016;-57
2022/12/15 07:19:49;;;;;;;4.17;1.97;;;;;;;;;;5089163;28;20024;-58
2022/12/15 07:22:16;;;;;;;6.20;4.07;;;;;;;;;;5088957;28;20403;-58
2022/12/15 07:24:43;;;;;;;5.90;3.90;;;;;;;;;;5089460;28;20471;-59
2022/12/15 07:27:09;;;;;;;7.30;4.87;;;;;;;;;;5091404;28;20031;-59
2022/12/15 07:29:36;;;;;;;8.33;4.90;;;;;;;;;;5094520;28;20020;-58
2022/12/15 07:32:03;;;;;;;7.63;6.27;;;;;;;;;;5093988;28;20103;-58
2022/12/15 07:34:29;;;;;;;4.80;3.73;;;;;;;;;;5094384;28;20474;-57
2022/12/15 07:36:56;;;;;;;4.53;3.47;;;;;;;;;;5093955;28;20410;-57
2022/12/15 07:39:23;;;;;;;4.33;2.90;;;;;;;;;;5091684;28;20024;-57
2022/12/15 07:41:49;;;;;;;10.40;3.90;;;;;;;;;;5088023;28;20101;-57
2022/12/15 07:44:16;;;;;;;2.30;1.63;;;;;;;;;;5088747;28;20055;-57
2022/12/15 07:46:45;;;;;;;5.57;3.53;;;;;;;;;;5088822;28;20024;-57
2022/12/15 07:49:12;;;;;;;3.13;2.60;;;;;;;;;;5090513;28;20027;-57
2022/12/15 07:51:40;;;;;;;6.13;4.27;;;;;;;;;;5093481;28;20034;-57
2022/12/15 07:54:07;;;;;;;5.10;3.00;;;;;;;;;;5093976;28;20469;-57
2022/12/15 07:56:33;;;;;;;5.30;3.33;;;;;;;;;;5093702;28;20505;-57
2022/12/15 07:59:00;;;;;;;3.10;2.60;;;;;;;;;;5093913;28;20158;-57
2022/12/15 08:01:27;;;;;;;3.23;1.93;;;;;;;;;;5091656;28;20258;-57
2022/12/15 08:03:53;;;;;;;5.13;3.20;;;;;;;;;;5088414;28;20024;-57
2022/12/15 08:06:20;;;;;;;3.30;2.37;;;;;;;;;;5088584;28;20020;-57
2022/12/15 08:08:47;;;;;;;5.90;2.80;;;;;;;;;;5088031;28;20047;-57
2022/12/15 08:11:15;;;;;;;2.93;2.00;;;;;;;;;;5089121;28;20374;-57
2022/12/15 08:13:42;;;;;;;10.20;1.70;;;;;;;;;;5093247;28;20028;-57
2022/12/15 08:16:10;;;;;;;3.40;2.60;;;;;;;;;;5093583;28;20040;-58
2022/12/15 08:18:38;;;;;;;1.80;1.40;;;;;;;;;;5093363;28;20031;-57
2022/12/15 08:21:08;;;;;;;3.17;2.33;;;;;;;;;;5093047;28;20039;-57
2022/12/15 08:23:36;;;;;;;2.43;2.23;;;;;;;;;;5091565;28;20830;-58
2022/12/15 08:26:06;;;;;;;2.43;1.93;;;;;;;;;;5087974;28;20271;-58
2022/12/15 08:28:34;;;;;;;3.63;2.90;;;;;;;;;;5087957;28;20253;-56
2022/12/15 08:31:10;;;;;;;2.13;1.93;;;;;;;;;;5087653;28;20269;-57
2022/12/15 08:33:37;;;;;;;3.20;2.70;;;;;;;;;;5089262;28;20471;-57
2022/12/15 08:36:05;;;;;;;3.00;2.10;;;;;;;;;;5092656;28;20348;-57
2022/12/15 08:38:32;;;;;;;6.63;1.23;;;;;;;;;;5093036;28;20027;-57
2022/12/15 08:41:06;;;;;;;2.90;2.40;;;;;;;;;;5092815;28;20039;-57
2022/12/15 08:43:33;;;;;;;4.10;2.40;;;;;;;;;;5092914;28;20274;-57
2022/12/15 08:46:00;;;;;;;4.40;2.37;;;;;;;;;;5091044;28;20268;-57
2022/12/15 08:48:27;;;;;;;3.33;2.57;;;;;;;;;;5087409;28;20318;-57
2022/12/15 08:50:55;;;;;;;6.87;1.90;;;;;;;;;;5086827;28;20271;-57
2022/12/15 08:53:21;;;;;;;3.07;2.50;;;;;;;;;;5087290;28;20261;-57
2022/12/15 08:55:48;;;;;;;3.30;2.30;;;;;;;;;;5087893;28;20265;-57
2022/12/15 08:58:15;;;;;;;4.57;2.27;;;;;;;;;;5092774;28;20016;-58
2022/12/15 09:00:41;;;;;;;2.47;1.97;;;;;;;;;;5092840;28;20284;-56
2022/12/15 09:03:08;;;;;;;8.37;4.00;;;;;;;;;;5092758;28;20260;-57
2022/12/15 09:05:35;;;;;;;3.60;2.70;;;;;;;;;;5092075;28;20406;-56
2022/12/15 09:08:02;;;;;;;4.00;2.30;;;;;;;;;;5091534;28;20720;-56
2022/12/15 09:10:29;;;;;;;1.40;1.30;;;;;;;;;;5086906;28;20682;-57
2022/12/15 09:12:55;;;;;;;3.37;2.23;;;;;;;;;;5087303;28;20259;-57
2022/12/15 09:15:22;;;;;;;3.63;2.93;;;;;;;;;;5086744;28;20283;-57
2022/12/15 09:17:49;;;;;;;5.63;3.17;;;;;;;;;;5087828;28;20627;-57
2022/12/15 09:20:16;;;;;;;3.03;2.40;;;;;;;;;;5092337;28;20253;-57
2022/12/15 09:22:42;;;;;;;4.63;3.37;;;;;;;;;;5091780;28;20304;-56
2022/12/15 09:25:09;;;;;;;3.63;2.33;;;;;;;;;;5092582;28;20245;-56
2022/12/15 09:27:36;;;;;;;3.07;2.17;;;;;;;;;;5092429;28;20256;-57
2022/12/15 09:30:03;;;;;;;2.30;2.10;;;;;;;;;;5091545;28;20249;-56
2022/12/15 09:32:30;;;;;;;3.27;2.33;;;;;;;;;;5086730;28;20842;-56
2022/12/15 09:34:57;;;;;;;3.57;2.73;;;;;;;;;;5087127;28;20260;-56
2022/12/15 09:37:23;;;;;;;6.40;4.07;;;;;;;;;;5086588;28;20276;-56
2022/12/15 09:39:50;;;;;;;4.47;3.57;;;;;;;;;;5086886;28;20260;-57
2022/12/15 09:42:27;;;;;;;3.03;2.33;;;;;;;;;;5092475;28;20345;-57
2022/12/15 09:45:07;;;;;;;5.73;3.57;;;;;;;;;;5092240;28;20306;-57
2022/12/15 09:47:37;;;;;;;3.10;2.13;;;;;;;;;;5091865;28;20348;-57
2022/12/15 09:50:06;;;;;;;4.27;3.47;;;;;;;;;;5092277;28;20261;-57
2022/12/15 09:52:42;;;;;;;2.47;1.70;;;;;;;;;;5090729;28;20743;-56
2022/12/15 09:55:17;;;;;;;2.47;1.53;;;;;;;;;;5086826;28;20313;-56
2022/12/15 09:57:47;;;;;;;5.47;3.33;;;;;;;;;;5086382;28;20628;-56
2022/12/15 10:00:19;;;;;;;1.57;1.43;;;;;;;;;;5086277;28;20325;-58
2022/12/15 10:03:04;;;;;;;1.30;1.20;;;;;;;;;;5088337;28;20351;-57
2022/12/15 10:05:49;;;;;;;5.13;3.20;;;;;;;;;;5093344;28;20257;-57
2022/12/15 10:08:16;;;;;;;1.67;1.50;;;;;;;;;;5095885;28;20020;-57
2022/12/15 10:10:55;;;;;;;3.47;2.90;;;;;;;;;;5096124;28;20569;-56
2022/12/15 10:13:31;;;;;;;1.80;1.37;;;;;;;;;;5095887;28;20263;-56
2022/12/15 10:16:00;;;;;;;1.77;1.60;;;;;;;;;;5091279;28;20378;-57
2022/12/15 10:18:32;;;;;;;2.70;2.10;;;;;;;;;;5090138;28;20311;-56
2022/12/15 10:21:00;;;;;;;3.33;3.03;;;;;;;;;;5090410;28;20320;-56
2022/12/15 10:23:27;;;;;;;3.23;2.10;;;;;;;;;;5090504;28;20276;-56
2022/12/15 10:25:58;;;;;;;2.60;1.97;;;;;;;;;;5093618;28;20351;-57
2022/12/15 10:28:25;;;;;;;4.30;2.40;;;;;;;;;;5095545;28;20331;-56
2022/12/15 10:30:58;;;;;;;3.63;2.80;;;;;;;;;;5095182;28;20285;-56
2022/12/15 10:33:26;;;;;;;2.50;2.17;;;;;;;;;;5095628;28;20662;-56
2022/12/15 10:35:55;;;;;;;2.23;1.77;;;;;;;;;;5095325;28;20307;-57
2022/12/15 10:38:41;;;;;;;3.10;1.63;;;;;;;;;;5091033;28;20267;-56
2022/12/15 10:41:09;;;;;;;2.92;2.22;;;;;;;;;;5089546;28;20292;-56
2022/12/15 10:43:46;;;;;;;14.27;3.83;;;;;;;;;;5090232;28;20032;-56
2022/12/15 10:46:20;;;;;;;2.37;2.17;;;;;;;;;;5089382;28;20269;-56
2022/12/15 10:48:50;;;;;;;3.72;2.90;;;;;;;;;;5094506;28;20284;-56
2022/12/15 10:51:18;;;;;;;3.70;2.90;;;;;;;;;;5095201;28;20024;-56
2022/12/15 10:54:04;;;;;;;4.07;2.73;;;;;;;;;;5095165;28;20348;-56
2022/12/15 10:56:32;;;;;;;1.93;1.70;;;;;;;;;;5094853;28;20264;-56
2022/12/15 10:59:00;;;;;;;4.60;2.43;;;;;;;;;;5094590;28;20024;-56
2022/12/15 11:01:28;;;;;;;1.87;1.67;;;;;;;;;;5089458;28;20353;-56
2022/12/15 11:03:56;;;;;;;3.50;2.37;;;;;;;;;;5089265;28;20263;-57
2022/12/15 11:06:24;;;;;;;2.40;2.13;;;;;;;;;;5089281;28;20275;-56
2022/12/15 11:08:53;;;;;;;2.07;1.67;;;;;;;;;;5089572;28;20390;-57
2022/12/15 11:14:23;;;;;;;2.80;2.50;;;;;;;;;;5094522;28;20619;-56
2022/12/15 11:16:59;;;;;;;3.87;2.60;;;;;;;;;;5093311;28;20292;-57
2022/12/15 11:19:25;;;;;;;2.13;1.80;;;;;;;;;;5094707;28;20257;-56
2022/12/15 11:21:55;;;;;;;4.20;2.63;;;;;;;;;;5092620;28;20280;-57
2022/12/15 11:24:41;;;;;;;9.57;1.80;;;;;;;;;;5089197;28;20252;-56
2022/12/15 11:27:11;;;;;;;3.60;2.63;;;;;;;;;;5088177;28;20280;-56
2022/12/15 11:29:58;;;;;;;3.23;2.90;;;;;;;;;;5089212;28;20263;-56
2022/12/15 11:32:27;;;;;;;3.33;2.90;;;;;;;;;;5091981;28;20714;-56
2022/12/15 11:34:54;;;;;;;5.70;2.87;;;;;;;;;;5094472;28;20315;-56
2022/12/15 11:37:44;;;;;;;4.30;3.23;;;;;;;;;;5094146;28;20355;-56
2022/12/15 11:40:26;;;;;;;8.97;2.93;;;;;;;;;;5093701;28;20265;-57
2022/12/15 11:42:52;;;;;;;2.73;2.13;;;;;;;;;;5094215;28;20280;-56
2022/12/15 11:45:38;;;;;;;3.00;2.27;;;;;;;;;;5089104;28;20269;-57
2022/12/15 11:48:18;;;;;;;4.13;2.25;;;;;;;;;;5089043;28;20310;-56
2022/12/15 11:50:48;;;;;;;3.03;2.23;;;;;;;;;;5088486;28;20441;-56
2022/12/15 11:53:33;;;;;;;2.80;1.83;;;;;;;;;;5088470;28;20268;-57
2022/12/15 11:56:07;;;;;;;1.63;1.45;;;;;;;;;;5079022;28;20249;-57
2022/12/15 11:58:46;;;;;;;3.87;2.07;;;;;;;;;;5093474;28;20036;-56
2022/12/15 12:01:24;;;;;;;1.90;1.70;;;;;;;;;;5093779;28;20281;-56
2022/12/15 12:04:06;;;;;;;3.53;2.67;;;;;;;;;;5093853;28;20617;-56
2022/12/15 12:06:38;;;;;;;5.20;3.20;;;;;;;;;;5090726;28;20677;-56
2022/12/15 12:09:16;;;;;;;2.47;1.80;;;;;;;;;;5088411;28;20685;-56
2022/12/15 12:11:53;;;;;;;2.80;1.93;;;;;;;;;;5088259;28;20327;-56
2022/12/15 12:14:20;;;;;;;4.03;2.87;;;;;;;;;;5088133;28;20522;-57
2022/12/15 12:16:55;;;;;;;3.73;3.07;;;;;;;;;;5090619;28;20264;-56
2022/12/15 12:19:40;;;;;;;4.30;2.87;;;;;;;;;;5093517;28;20739;-56
2022/12/15 12:22:12;;;;;;;3.40;2.42;;;;;;;;;;5093527;28;20630;-56
2022/12/15 12:24:41;;;;;;;4.10;3.07;;;;;;;;;;5093056;28;20471;-56
2022/12/15 12:27:16;;;;;;;5.93;3.53;;;;;;;;;;5092742;28;20682;-56
2022/12/15 12:29:49;;;;;;;3.08;2.78;;;;;;;;;;5088595;28;20430;-56
2022/12/15 12:32:39;;;;;;;15.80;3.17;;;;;;;;;;5088109;28;20124;-56
2022/12/15 12:35:13;;;;;;;13.67;2.57;;;;;;;;;;5074818;28;20620;-56
2022/12/15 12:37:40;;;;;;;1.75;1.48;;;;;;;;;;5067629;28;20861;-57
2022/12/15 12:40:15;;;;;;;1.63;1.53;;;;;;;;;;5072601;28;20028;-56
2022/12/15 12:43:01;;;;;;;3.90;3.40;;;;;;;;;;5072752;28;20770;-57
2022/12/15 12:45:37;;;;;;;1.70;1.57;;;;;;;;;;5089009;28;20429;-56
2022/12/15 12:48:12;;;;;;;3.63;2.97;;;;;;;;;;5093033;28;20253;-56
2022/12/15 12:50:38;;;;;;;2.95;2.65;;;;;;;;;;5091337;28;20332;-56
2022/12/15 12:53:05;;;;;;;4.93;2.30;;;;;;;;;;5087681;28;20028;-57
2022/12/15 12:55:40;;;;;;;3.43;2.70;;;;;;;;;;5087080;28;20677;-56
2022/12/15 12:58:25;;;;;;;3.10;2.13;;;;;;;;;;5087410;28;20269;-56
2022/12/15 13:01:11;;;;;;;4.50;3.28;;;;;;;;;;5089393;28;20284;-56
2022/12/15 13:03:45;;;;;;;3.63;2.43;;;;;;;;;;5092253;28;20028;-57
2022/12/15 13:06:29;;;;;;;4.77;3.33;;;;;;;;;;5072561;28;20269;-57
2022/12/15 13:08:56;;;;;;;5.03;2.63;;;;;;;;;;5072588;28;20253;-56
2022/12/15 13:11:41;;;;;;;5.50;2.87;;;;;;;;;;5072167;28;20025;-56
2022/12/15 13:14:13;;;;;;;2.58;2.22;;;;;;;;;;5071913;28;20351;-56
2022/12/15 13:16:40;;;;;;;7.57;4.03;;;;;;;;;;5087286;28;20039;-56
2022/12/15 13:19:07;;;;;;;4.17;3.30;;;;;;;;;;5087194;28;20257;-57
2022/12/15 13:21:43;;;;;;;3.33;2.67;;;;;;;;;;5086802;28;20781;-56
2022/12/15 13:24:25;;;;;;;4.67;3.93;;;;;;;;;;5090976;28;20267;-56
2022/12/15 13:26:52;;;;;;;3.90;3.17;;;;;;;;;;5092652;28;20318;-56
2022/12/15 13:29:24;;;;;;;7.67;4.10;;;;;;;;;;5092414;28;20738;-56
2022/12/15 13:31:52;;;;;;;10.70;4.20;;;;;;;;;;5091672;28;20301;-56
2022/12/15 13:34:24;;;;;;;4.70;4.20;;;;;;;;;;5092287;28;20275;-56
2022/12/15 13:36:52;;;;;;;9.80;5.00;;;;;;;;;;5086961;28;20265;-57
2022/12/15 13:39:18;;;;;;;13.83;5.23;;;;;;;;;;5086940;28;20245;-56
2022/12/15 13:41:50;;;;;;;8.73;4.43;;;;;;;;;;5089889;28;20322;-57
2022/12/15 13:44:16;;;;;;;11.47;5.43;;;;;;;;;;5091195;28;20264;-58
2022/12/15 13:46:45;;;;;;;6.53;4.03;;;;;;;;;;5095504;28;20338;-57
2022/12/15 13:49:14;;;;;;;7.17;5.03;;;;;;;;;;5096098;28;20320;-56
2022/12/15 13:51:47;;;;;;;6.60;4.37;;;;;;;;;;5096456;28;20739;-57
2022/12/15 13:54:16;;;;;;;10.40;5.37;;;;;;;;;;5096314;28;20649;-57
2022/12/15 13:56:52;;;;;;;22.20;10.47;;;;;;;;;;5095908;28;20755;-56
2022/12/15 13:59:37;;;;;;;23.07;9.23;;;;;;;;;;5090157;28;20329;-57
2022/12/15 14:02:22;;;;;;;13.02;8.15;;;;;;;;;;5090460;28;20334;-56
2022/12/15 14:05:08;;;;;;;36.97;14.25;;;;;;;;;;5090880;28;20108;-57
2022/12/15 14:07:35;;;;;;;20.73;13.63;;;;;;;;;;5092710;28;20079;-57
2022/12/15 14:10:03;;;;;;;20.30;13.70;;;;;;;;;;5095981;28;20256;-57
2022/12/15 14:12:30;;;;;;;35.93;18.37;;;;;;;;;;5095547;28;20031;-57
2022/12/15 14:14:57;;;;;;;25.67;14.27;;;;;;;;;;5095719;28;20078;-57
2022/12/15 14:17:23;;;;;;;36.63;16.83;;;;;;;;;;5095455;28;20036;-56
2022/12/15 14:19:50;;;;;;;47.30;19.13;;;;;;;;;;5093630;28;20058;-57
2022/12/15 14:22:27;;;;;;;30.90;19.97;;;;;;;;;;5090121;28;20044;-57
2022/12/15 14:24:59;;;;;;;25.97;13.20;;;;;;;;;;5090344;28;20106;-57
2022/12/15 14:27:27;;;;;;;29.00;11.73;;;;;;;;;;5090392;28;20024;-57
2022/12/15 14:30:29;;;;;;;19.27;10.63;;;;;;;;;;5091941;28;20017;-57
2022/12/15 14:32:58;;;;;;;22.77;9.80;;;;;;;;;;5092949;28;20028;-57
2022/12/15 14:35:36;;;;;;;10.60;6.23;;;;;;;;;;5077780;28;20398;-57
2022/12/15 14:38:06;;;;;;;10.90;6.97;;;;;;;;;;5074704;28;20054;-57
2022/12/15 14:40:34;;;;;;;27.13;8.10;;;;;;;;;;5075146;28;20078;-57
2022/12/15 14:43:01;;;;;;;11.60;6.90;;;;;;;;;;5080240;28;20032;-57
2022/12/15 14:45:28;;;;;;;9.20;5.17;;;;;;;;;;5089814;28;20486;-57
2022/12/15 14:47:58;;;;;;;7.53;6.00;;;;;;;;;;5089369;28;20367;-57
2022/12/15 14:50:25;;;;;;;12.67;5.10;;;;;;;;;;5089193;28;20016;-57
2022/12/15 14:53:00;;;;;;;11.03;5.93;;;;;;;;;;5093077;28;20028;-58
2022/12/15 14:55:27;;;;;;;9.20;5.77;;;;;;;;;;5095127;28;20046;-57
2022/12/15 14:57:54;;;;;;;8.53;6.37;;;;;;;;;;5095169;28;20024;-57
2022/12/15 15:00:34;;;;;;;7.17;4.00;;;;;;;;;;5094844;28;20111;-57
2022/12/15 15:03:21;;;;;;;8.40;5.13;;;;;;;;;;5094351;28;20032;-58
2022/12/15 15:05:57;;;;;;;7.53;5.27;;;;;;;;;;5089502;28;20032;-57
2022/12/15 15:08:31;;;;;;;8.50;3.97;;;;;;;;;;5089340;28;20108;-58
2022/12/15 15:11:00;;;;;;;7.22;4.13;;;;;;;;;;5088957;28;20310;-58
2022/12/15 15:13:29;;;;;;;4.57;3.50;;;;;;;;;;5089201;28;20028;-58
2022/12/15 15:16:00;;;;;;;8.70;5.27;;;;;;;;;;5094637;28;20112;-57
2022/12/15 15:18:28;;;;;;;10.17;3.87;;;;;;;;;;5094708;28;20049;-58
2022/12/15 15:20:58;;;;;;;26.13;4.60;;;;;;;;;;5094254;28;20089;-58
2022/12/15 15:23:25;;;;;;;3.63;2.83;;;;;;;;;;5094255;28;20073;-58
2022/12/15 15:25:53;;;;;;;5.67;3.77;;;;;;;;;;5093889;28;20054;-58
2022/12/15 15:28:20;;;;;;;4.77;3.37;;;;;;;;;;5089122;28;20435;-58
2022/12/15 15:30:54;;;;;;;7.07;4.10;;;;;;;;;;5089047;28;20028;-58
2022/12/15 15:33:21;;;;;;;5.38;3.58;;;;;;;;;;5088742;28;20103;-58
2022/12/15 15:35:53;;;;;;;5.17;3.37;;;;;;;;;;5089088;28;20020;-57
2022/12/15 15:38:23;;;;;;;7.83;3.33;;;;;;;;;;5094187;28;20098;-58
2022/12/15 15:40:51;;;;;;;3.70;2.83;;;;;;;;;;5094220;28;20031;-58
2022/12/15 15:43:18;;;;;;;8.33;3.47;;;;;;;;;;5093940;28;20028;-58
2022/12/15 15:45:45;;;;;;;7.20;2.87;;;;;;;;;;5093833;28;20467;-58
2022/12/15 15:48:16;;;;;;;6.83;3.80;;;;;;;;;;5092573;28;20031;-58
2022/12/15 15:50:44;;;;;;;4.97;2.93;;;;;;;;;;5088645;28;20471;-58
2022/12/15 15:53:15;;;;;;;3.67;2.47;;;;;;;;;;5088611;28;20020;-58
2022/12/15 15:55:42;;;;;;;4.70;2.60;;;;;;;;;;5088135;28;20070;-58
2022/12/15 15:58:10;;;;;;;4.63;2.90;;;;;;;;;;5089377;28;20344;-58
2022/12/15 16:00:36;;;;;;;4.20;2.07;;;;;;;;;;5093729;28;20016;-58
2022/12/15 16:03:03;;;;;;;3.77;2.73;;;;;;;;;;5092927;28;20060;-58
2022/12/15 16:05:30;;;;;;;8.33;3.17;;;;;;;;;;5093983;28;20050;-58
2022/12/15 16:07:57;;;;;;;3.43;2.50;;;;;;;;;;5093045;28;20036;-58
2022/12/15 16:10:24;;;;;;;4.37;2.10;;;;;;;;;;5092487;28;20024;-58
2022/12/15 16:12:52;;;;;;;5.37;2.87;;;;;;;;;;5087969;28;20118;-58
2022/12/15 16:15:24;;;;;;;3.70;2.47;;;;;;;;;;5088290;28;20115;-58
2022/12/15 16:17:51;;;;;;;13.20;3.90;;;;;;;;;;5087736;28;20032;-58
2022/12/15 16:20:18;;;;;;;7.30;4.03;;;;;;;;;;5088616;28;20028;-58
2022/12/15 16:22:47;;;;;;;4.27;3.10;;;;;;;;;;5093430;28;20032;-58
2022/12/15 16:25:17;;;;;;;8.23;3.00;;;;;;;;;;5093459;28;20070;-58
2022/12/15 16:27:43;;;;;;;3.93;2.43;;;;;;;;;;5093275;28;20032;-58
2022/12/15 16:30:16;;;;;;;5.53;3.10;;;;;;;;;;5092935;28;20115;-58
2022/12/15 16:32:43;;;;;;;6.23;3.60;;;;;;;;;;5091778;28;20020;-58
2022/12/15 16:35:10;;;;;;;3.03;2.30;;;;;;;;;;5087469;28;20028;-58
2022/12/15 16:37:37;;;;;;;4.50;2.60;;;;;;;;;;5087507;28;20580;-58
2022/12/15 16:40:13;;;;;;;12.33;2.33;;;;;;;;;;5087167;28;20561;-58
2022/12/15 16:42:40;;;;;;;11.70;3.40;;;;;;;;;;5088479;28;20063;-58
2022/12/15 16:45:14;;;;;;;7.13;3.17;;;;;;;;;;5092443;28;20067;-58
2022/12/15 16:47:41;;;;;;;3.33;2.63;;;;;;;;;;5093113;28;20028;-58
2022/12/15 16:50:08;;;;;;;4.50;3.47;;;;;;;;;;5092891;28;20020;-58
2022/12/15 16:52:35;;;;;;;4.70;2.47;;;;;;;;;;5093084;28;20099;-58
2022/12/15 16:55:02;;;;;;;6.50;3.30;;;;;;;;;;5091132;28;20486;-58
2022/12/15 16:57:28;;;;;;;3.83;2.47;;;;;;;;;;5087179;28;20028;-58
2022/12/15 16:59:55;;;;;;;4.23;2.50;;;;;;;;;;5087366;28;20024;-58
2022/12/15 17:02:26;;;;;;;8.07;3.00;;;;;;;;;;5087136;28;20611;-58
2022/12/15 17:04:54;;;;;;;4.07;2.27;;;;;;;;;;5087767;28;20055;-58
2022/12/15 17:07:21;;;;;;;4.07;2.37;;;;;;;;;;5092773;28;20031;-58
2022/12/15 17:09:48;;;;;;;4.10;2.73;;;;;;;;;;5092204;28;20024;-58
2022/12/15 17:12:16;;;;;;;6.97;2.93;;;;;;;;;;5091849;28;20533;-58
2022/12/15 17:14:43;;;;;;;5.37;2.50;;;;;;;;;;5092041;28;20089;-58
2022/12/15 17:17:17;;;;;;;3.10;2.40;;;;;;;;;;5090970;28;20040;-58
2022/12/15 17:19:44;;;;;;;12.90;3.40;;;;;;;;;;5086395;28;20521;-58
2022/12/15 17:22:14;;;;;;;3.20;2.60;;;;;;;;;;5086589;28;20119;-59
2022/12/15 17:24:48;;;;;;;5.23;3.60;;;;;;;;;;5086909;28;20043;-58